Time;durP1;ratioP1;P1;durP2;ratioP2;P2;SDS_P1;SDS_P2;PMS_P1;PMS_P2;Temp;Humidity;BMP_temperature;BMP_pressure;BME280_temperature;BME280_humidity;BME280_pressure;Samples;Min_cycle;Max_cycle;Signal;HPM_P1;HPM_P2
2022/06/08 00:00:33;;;;;;;11.00;4.07;;;11.40;99.90;;;;;;4990807;28;20583;-91
2022/06/08 00:03:11;;;;;;;12.13;3.75;;;11.40;99.90;;;;;;4986051;28;20047;-92
2022/06/08 00:05:37;;;;;;;12.88;4.38;;;11.40;99.90;;;;;;4984349;28;20030;-91
2022/06/08 00:08:02;;;;;;;12.50;4.13;;;11.40;99.90;;;;;;5001865;28;20076;-91
2022/06/08 00:10:29;;;;;;;10.55;4.30;;;11.40;99.90;;;;;;4958335;28;20038;-91
2022/06/08 00:12:54;;;;;;;10.77;3.65;;;11.30;99.90;;;;;;5011509;28;20066;-91
2022/06/08 00:15:21;;;;;;;11.57;3.60;;;11.40;99.90;;;;;;5009402;28;20077;-92
2022/06/08 00:17:47;;;;;;;11.20;3.78;;;11.40;99.90;;;;;;4988769;28;20042;-91
2022/06/08 00:20:14;;;;;;;12.27;3.80;;;11.30;99.90;;;;;;4967451;28;20125;-92
2022/06/08 00:22:39;;;;;;;12.20;3.70;;;11.30;99.90;;;;;;4997718;28;20096;-91
2022/06/08 00:25:06;;;;;;;9.80;3.65;;;11.80;99.90;;;;;;4988578;28;20133;-91
2022/06/08 00:27:32;;;;;;;11.43;4.22;;;11.30;99.90;;;;;;4987733;28;20034;-90
2022/06/08 00:29:59;;;;;;;9.63;3.88;;;11.20;99.90;;;;;;4992764;28;20049;-91
2022/06/08 00:32:25;;;;;;;10.95;4.10;;;11.20;99.90;;;;;;5003768;28;20116;-91
2022/06/08 00:34:51;;;;;;;9.40;3.42;;;11.20;99.90;;;;;;5013804;28;20124;-91
2022/06/08 00:37:16;;;;;;;9.43;3.30;;;11.20;99.90;;;;;;5015377;28;20152;-92
2022/06/08 00:39:42;;;;;;;9.55;3.53;;;11.10;99.90;;;;;;4983801;28;20549;-92
2022/06/08 00:42:11;;;;;;;10.65;3.78;;;11.10;99.90;;;;;;4999387;28;20038;-92
2022/06/08 00:44:52;;;;;;;9.15;3.60;;;12.90;99.90;;;;;;5016559;28;20045;-92
2022/06/08 00:47:32;;;;;;;14.48;4.43;;;11.10;99.90;;;;;;4999681;28;20191;-92
2022/06/08 00:50:01;;;;;;;10.43;3.78;;;11.20;99.90;;;;;;5011143;28;20394;-91
2022/06/08 00:52:29;;;;;;;11.43;4.18;;;11.20;99.90;;;;;;4987698;28;20421;-92
2022/06/08 00:55:00;;;;;;;13.48;4.78;;;11.20;99.90;;;;;;4982449;28;20033;-90
2022/06/08 00:57:31;;;;;;;12.63;4.47;;;11.60;99.90;;;;;;4998412;28;20037;-92
2022/06/08 01:00:11;;;;;;;12.98;4.07;;;11.10;99.90;;;;;;4996066;28;20490;-91
2022/06/08 01:02:37;;;;;;;9.82;3.78;;;11.10;99.90;;;;;;4996584;28;20402;-91
2022/06/08 01:05:29;;;;;;;10.23;3.90;;;11.10;99.90;;;;;;4994321;28;20528;-92
2022/06/08 01:08:38;;;;;;;13.23;4.35;;;11.10;99.90;;;;;;5012651;28;20037;-91
2022/06/08 01:11:17;;;;;;;9.43;4.22;;;11.10;99.90;;;;;;4991676;28;20046;-91
2022/06/08 01:13:44;;;;;;;10.00;4.60;;;11.00;99.90;;;;;;4995321;28;20048;-91
2022/06/08 01:16:11;;;;;;;10.63;3.90;;;11.40;99.90;;;;;;4996932;28;20409;-91
2022/06/08 01:18:38;;;;;;;9.85;4.07;;;10.90;99.90;;;;;;5021468;28;20375;-91
2022/06/08 01:21:22;;;;;;;9.73;3.80;;;10.90;99.90;;;;;;4997933;28;20049;-91
2022/06/08 01:24:00;;;;;;;9.75;4.20;;;10.90;99.90;;;;;;4992163;28;20050;-92
2022/06/08 01:26:39;;;;;;;9.93;3.80;;;10.80;99.90;;;;;;5009859;28;20049;-92
2022/06/08 01:29:42;;;;;;;11.63;4.35;;;10.80;99.90;;;;;;4994702;28;20471;-91
2022/06/08 01:32:28;;;;;;;10.68;4.22;;;10.80;99.90;;;;;;4995247;28;20068;-92
2022/06/08 01:35:29;;;;;;;10.32;4.22;;;10.80;99.90;;;;;;5005212;28;20041;-91
2022/06/08 01:38:16;;;;;;;9.65;4.10;;;10.80;99.90;;;;;;4972392;28;20132;-92
2022/06/08 01:40:55;;;;;;;10.82;4.45;;;10.80;99.90;;;;;;5009401;28;20037;-91
2022/06/08 01:43:36;;;;;;;9.90;3.78;;;10.80;99.90;;;;;;4998835;28;20041;-91
2022/06/08 01:46:19;;;;;;;10.70;4.10;;;10.80;99.90;;;;;;5010391;28;20057;-92
2022/06/08 01:49:07;;;;;;;9.55;4.20;;;10.80;99.90;;;;;;5008664;28;20074;-91
2022/06/08 01:51:54;;;;;;;9.82;3.97;;;10.80;99.90;;;;;;5008179;28;20135;-91
2022/06/08 01:54:40;;;;;;;9.30;4.18;;;10.70;99.90;;;;;;4996922;28;20050;-91
2022/06/08 01:57:35;;;;;;;9.73;4.45;;;10.70;99.90;;;;;;4998241;28;20394;-91
2022/06/08 02:00:09;;;;;;;10.30;4.55;;;10.70;99.90;;;;;;4944150;28;20161;-91
2022/06/08 02:02:48;;;;;;;13.43;4.40;;;10.70;99.90;;;;;;4994416;28;20042;-92
2022/06/08 02:05:23;;;;;;;12.15;4.70;;;10.70;99.90;;;;;;4994514;28;20060;-92
2022/06/08 02:07:52;;;;;;;10.98;4.35;;;10.70;99.90;;;;;;4998704;28;20037;-92
2022/06/08 02:10:28;;;;;;;9.95;4.78;;;10.70;99.90;;;;;;5015744;28;20046;-92
2022/06/08 02:13:11;;;;;;;9.52;4.30;;;10.70;99.90;;;;;;4985706;28;20048;-92
2022/06/08 02:15:43;;;;;;;10.30;4.72;;;10.70;99.90;;;;;;4997869;28;20095;-91
2022/06/08 02:18:37;;;;;;;11.27;4.80;;;11.30;99.90;;;;;;4998464;28;20069;-91
2022/06/08 02:21:14;;;;;;;13.23;5.05;;;10.60;99.90;;;;;;4998121;28;20525;-91
2022/06/08 02:24:09;;;;;;;10.13;4.68;;;11.50;99.90;;;;;;5005264;28;20042;-92
2022/06/08 02:26:48;;;;;;;11.10;4.82;;;10.70;99.90;;;;;;4996955;28;20093;-92
2022/06/08 02:29:23;;;;;;;10.77;4.93;;;10.70;99.90;;;;;;5025269;28;20502;-92
2022/06/08 02:32:03;;;;;;;11.68;4.80;;;10.70;99.90;;;;;;5030004;28;20422;-91
2022/06/08 02:34:35;;;;;;;12.07;4.90;;;10.60;99.90;;;;;;5023424;28;20049;-92
2022/06/08 02:37:06;;;;;;;12.65;4.75;;;11.20;99.90;;;;;;5008861;28;20110;-90
2022/06/08 02:39:43;;;;;;;9.95;4.65;;;10.60;99.90;;;;;;4992782;28;20053;-92
2022/06/08 02:42:55;;;;;;;12.43;4.90;;;10.60;99.90;;;;;;5012605;28;20045;-92
2022/06/08 02:45:31;;;;;;;8.77;4.28;;;10.60;99.90;;;;;;5020944;28;20055;-90
2022/06/08 02:48:02;;;;;;;11.23;4.93;;;10.50;99.90;;;;;;5026705;28;20048;-90
2022/06/08 02:50:29;;;;;;;11.70;4.60;;;10.50;99.90;;;;;;5018658;28;20057;-90
2022/06/08 02:53:33;;;;;;;11.55;5.50;;;10.50;99.90;;;;;;5011485;28;20101;-92
2022/06/08 02:56:08;;;;;;;11.52;4.82;;;10.50;99.90;;;;;;5030196;28;20076;-91
2022/06/08 02:59:03;;;;;;;11.38;5.28;;;10.50;99.90;;;;;;5021684;28;20106;-90
2022/06/08 03:01:38;;;;;;;11.95;5.15;;;10.50;99.90;;;;;;5010619;28;20061;-92
2022/06/08 03:04:19;;;;;;;11.55;4.90;;;10.50;99.90;;;;;;5018508;28;20061;-91
2022/06/08 03:07:03;;;;;;;15.38;5.85;;;10.50;99.90;;;;;;5016966;28;20028;-93
2022/06/08 03:09:31;;;;;;;12.75;5.32;;;9.50;99.90;;;;;;5014052;28;20049;-91
2022/06/08 03:12:06;;;;;;;11.63;5.10;;;10.50;99.90;;;;;;4996361;28;20026;-92
2022/06/08 03:14:33;;;;;;;10.32;4.90;;;10.60;99.90;;;;;;5014416;28;20081;-91
2022/06/08 03:17:05;;;;;;;30.88;5.78;;;10.60;99.90;;;;;;5012302;28;20060;-91
2022/06/08 03:19:33;;;;;;;12.50;5.30;;;10.50;99.90;;;;;;5030396;28;20018;-91
2022/06/08 03:21:59;;;;;;;10.88;5.35;;;10.50;99.90;;;;;;5017808;28;20401;-91
2022/06/08 03:24:26;;;;;;;11.32;5.40;;;10.50;99.90;;;;;;5013440;28;20037;-90
2022/06/08 03:27:00;;;;;;;11.48;5.30;;;11.20;99.90;;;;;;5009254;28;20052;-91
2022/06/08 03:29:29;;;;;;;14.13;5.60;;;10.50;99.90;;;;;;5028837;28;20040;-90
2022/06/08 03:31:54;;;;;;;15.50;6.10;;;10.50;99.90;;;;;;5015768;28;20064;-91
2022/06/08 03:34:21;;;;;;;12.98;6.00;;;10.50;99.90;;;;;;5014728;28;20030;-90
2022/06/08 03:36:47;;;;;;;13.68;6.15;;;10.50;99.90;;;;;;5045462;28;20415;-91
2022/06/08 03:39:13;;;;;;;12.75;6.35;;;10.60;99.90;;;;;;5025870;28;20069;-91
2022/06/08 03:41:40;;;;;;;12.13;6.25;;;10.60;99.90;;;;;;5031863;28;20037;-91
2022/06/08 03:44:06;;;;;;;11.23;6.25;;;10.60;99.90;;;;;;5012894;28;20053;-91
2022/06/08 03:46:35;;;;;;;12.40;6.22;;;10.60;99.90;;;;;;4998025;28;20486;-92
2022/06/08 03:49:02;;;;;;;12.10;6.47;;;10.60;99.90;;;;;;5010364;28;20056;-91
2022/06/08 03:51:28;;;;;;;13.93;6.78;;;10.60;99.90;;;;;;4997540;28;20197;-92
2022/06/08 03:54:02;;;;;;;11.52;6.50;;;10.60;99.90;;;;;;4994739;28;20615;-91
2022/06/08 03:56:30;;;;;;;14.85;7.30;;;10.60;99.90;;;;;;4989446;28;20104;-91
2022/06/08 03:58:57;;;;;;;15.60;7.38;;;10.60;99.90;;;;;;4985759;28;20077;-92
2022/06/08 04:01:23;;;;;;;13.63;7.53;;;10.70;99.90;;;;;;4969024;28;20111;-91
2022/06/08 04:03:51;;;;;;;16.45;7.53;;;10.70;99.90;;;;;;4978009;28;20046;-91
2022/06/08 04:06:21;;;;;;;15.77;8.18;;;11.80;99.90;;;;;;5009927;28;20045;-92
2022/06/08 04:08:47;;;;;;;14.85;8.15;;;10.70;99.90;;;;;;4992750;28;20116;-91
2022/06/08 04:11:13;;;;;;;14.43;7.93;;;10.80;99.90;;;;;;4991966;28;20084;-92
2022/06/08 04:13:40;;;;;;;18.63;8.73;;;10.90;99.90;;;;;;5006443;28;20041;-93
2022/06/08 04:16:06;;;;;;;15.07;8.30;;;11.00;99.90;;;;;;4990978;28;20097;-92
2022/06/08 04:18:32;;;;;;;15.60;8.45;;;11.00;99.90;;;;;;4985708;28;20132;-91
2022/06/08 04:21:00;;;;;;;15.80;8.68;;;11.10;99.90;;;;;;4989834;28;20042;-91
2022/06/08 04:23:28;;;;;;;13.95;8.02;;;11.20;99.90;;;;;;4987686;28;20077;-90
2022/06/08 04:25:53;;;;;;;16.23;8.60;;;11.90;99.90;;;;;;5006650;28;20038;-90
2022/06/08 04:28:21;;;;;;;16.15;8.70;;;11.40;99.90;;;;;;4988755;28;20052;-91
2022/06/08 04:30:47;;;;;;;14.98;9.02;;;11.40;99.90;;;;;;4987369;28;20044;-91
2022/06/08 04:33:14;;;;;;;16.38;8.95;;;11.50;99.90;;;;;;4976464;28;20103;-90
2022/06/08 04:35:40;;;;;;;14.38;8.55;;;11.60;99.90;;;;;;4991124;28;20508;-92
2022/06/08 04:38:06;;;;;;;16.92;8.85;;;11.70;99.90;;;;;;4992989;28;20045;-92
2022/06/08 04:40:33;;;;;;;17.63;9.35;;;11.80;99.90;;;;;;4991490;28;20044;-90
2022/06/08 04:42:59;;;;;;;16.38;9.05;;;11.90;99.90;;;;;;4991330;28;20034;-92
2022/06/08 04:45:26;;;;;;;15.18;8.52;;;12.10;99.90;;;;;;4989482;28;20053;-92
2022/06/08 04:47:52;;;;;;;16.45;8.80;;;12.20;99.90;;;;;;4993339;28;20869;-92
2022/06/08 04:50:18;;;;;;;13.57;8.27;;;12.40;99.90;;;;;;4986721;28;20042;-91
2022/06/08 04:52:44;;;;;;;16.35;9.27;;;12.60;99.90;;;;;;4987198;28;20279;-89
2022/06/08 04:55:12;;;;;;;14.90;9.07;;;12.70;99.90;;;;;;5009705;28;20274;-90
2022/06/08 04:57:39;;;;;;;16.48;9.98;;;12.80;99.90;;;;;;5011449;28;20049;-89
2022/06/08 05:00:12;;;;;;;17.63;9.75;;;12.90;99.90;;;;;;4994388;28;20041;-89
2022/06/08 05:02:44;;;;;;;16.73;9.75;;;;;;;;;;4984762;28;20096;-90
2022/06/08 05:05:29;;;;;;;16.17;10.32;;;13.00;99.90;;;;;;5026781;28;20033;-89
2022/06/08 05:07:55;;;;;;;16.83;9.75;;;13.10;99.90;;;;;;5000908;28;20048;-90
2022/06/08 05:10:24;;;;;;;16.88;10.00;;;13.10;99.90;;;;;;4987926;28;20037;-90
2022/06/08 05:12:52;;;;;;;16.38;9.93;;;13.20;99.90;;;;;;5000900;28;20041;-90
2022/06/08 05:15:28;;;;;;;17.00;9.85;;;13.20;99.90;;;;;;4991320;28;20558;-90
2022/06/08 05:17:55;;;;;;;17.25;10.65;;;13.20;99.90;;;;;;5019689;28;20099;-89
2022/06/08 05:20:22;;;;;;;16.98;11.18;;;13.30;99.90;;;;;;4992551;28;20057;-90
2022/06/08 05:22:49;;;;;;;15.35;10.43;;;13.30;99.90;;;;;;5013603;28;20041;-91
2022/06/08 05:25:20;;;;;;;19.85;10.98;;;13.30;99.90;;;;;;4998114;28;20041;-90
2022/06/08 05:27:45;;;;;;;17.52;11.00;;;13.30;99.90;;;;;;4984992;28;20513;-90
2022/06/08 05:30:12;;;;;;;17.10;11.75;;;14.30;99.90;;;;;;4966457;28;20037;-91
2022/06/08 05:32:39;;;;;;;17.35;11.48;;;13.30;99.90;;;;;;4998396;28;20053;-90
2022/06/08 05:35:06;;;;;;;18.13;11.25;;;13.40;99.90;;;;;;5009451;28;20064;-91
2022/06/08 05:37:32;;;;;;;16.58;11.00;;;13.30;99.90;;;;;;4980841;28;20140;-90
2022/06/08 05:39:58;;;;;;;19.85;12.50;;;13.40;99.90;;;;;;4970673;28;20053;-90
2022/06/08 05:42:24;;;;;;;19.13;11.98;;;13.50;99.90;;;;;;5005739;28;20038;-90
2022/06/08 05:44:50;;;;;;;16.83;11.13;;;13.50;99.90;;;;;;5000774;28;20494;-89
2022/06/08 05:47:16;;;;;;;19.48;11.95;;;13.50;99.90;;;;;;4998403;28;20041;-89
2022/06/08 05:49:43;;;;;;;20.38;12.23;;;13.60;99.90;;;;;;5008852;28;20051;-89
2022/06/08 05:52:09;;;;;;;19.15;12.25;;;13.60;99.90;;;;;;5019189;28;20042;-89
2022/06/08 05:54:36;;;;;;;18.55;12.02;;;13.70;99.90;;;;;;4990501;28;21298;-88
2022/06/08 05:57:03;;;;;;;19.35;11.82;;;13.70;99.90;;;;;;5024439;28;20064;-90
2022/06/08 05:59:29;;;;;;;19.00;11.50;;;13.80;99.90;;;;;;5009966;28;20041;-90
2022/06/08 06:01:55;;;;;;;18.80;12.20;;;13.90;99.90;;;;;;5030694;28;20041;-90
2022/06/08 06:04:20;;;;;;;18.13;11.40;;;13.90;99.90;;;;;;4992465;28;20054;-89
2022/06/08 06:06:47;;;;;;;19.60;11.48;;;14.00;99.90;;;;;;4964777;28;20034;-88
2022/06/08 06:09:18;;;;;;;17.38;11.63;;;14.10;99.90;;;;;;5007189;28;20445;-90
2022/06/08 06:11:44;;;;;;;18.77;12.20;;;14.10;99.90;;;;;;5011037;28;20033;-90
2022/06/08 06:14:10;;;;;;;17.48;11.55;;;14.50;99.90;;;;;;4997709;28;20160;-88
2022/06/08 06:16:39;;;;;;;18.30;11.50;;;14.30;99.90;;;;;;4996654;28;20050;-90
2022/06/08 06:19:05;;;;;;;16.20;11.02;;;14.40;99.90;;;;;;4997029;28;20037;-89
2022/06/08 06:21:31;;;;;;;19.88;11.70;;;14.40;99.90;;;;;;4998157;28;20538;-89
2022/06/08 06:23:59;;;;;;;18.02;11.10;;;14.60;99.90;;;;;;4994054;28;20046;-90
2022/06/08 06:26:25;;;;;;;17.80;11.20;;;14.70;99.90;;;;;;4973330;28;20033;-90
2022/06/08 06:28:51;;;;;;;17.45;11.05;;;14.70;99.90;;;;;;4994954;28;20091;-89
2022/06/08 06:31:30;;;;;;;18.20;11.73;;;14.70;99.90;;;;;;4994286;28;20065;-89
2022/06/08 06:33:56;;;;;;;17.73;11.10;;;14.80;99.90;;;;;;4996336;28;20107;-89
2022/06/08 06:36:22;;;;;;;19.52;11.73;;;;;;;;;;4993843;28;20046;-90
2022/06/08 06:38:48;;;;;;;19.73;11.68;;;15.00;99.90;;;;;;5002812;28;20145;-89
2022/06/08 06:41:16;;;;;;;16.80;11.13;;;15.10;99.90;;;;;;5006678;28;20120;-90
2022/06/08 06:43:42;;;;;;;18.33;11.60;;;15.20;99.90;;;;;;5012409;28;20111;-90
2022/06/08 06:46:11;;;;;;;17.80;10.93;;;15.30;99.90;;;;;;4977918;28;20107;-89
2022/06/08 06:48:38;;;;;;;17.27;10.30;;;15.40;99.90;;;;;;4993145;28;20179;-89
2022/06/08 06:51:05;;;;;;;19.10;11.48;;;15.50;99.90;;;;;;4996372;28;20088;-90
2022/06/08 06:53:31;;;;;;;18.40;11.18;;;15.60;99.90;;;;;;4992884;28;20103;-89
2022/06/08 06:55:57;;;;;;;16.80;11.00;;;15.70;99.90;;;;;;4987830;28;20045;-88
2022/06/08 06:58:23;;;;;;;16.90;9.85;;;15.70;99.90;;;;;;4992629;28;20042;-89
2022/06/08 07:00:49;;;;;;;15.98;10.52;;;15.90;99.90;;;;;;4992119;28;20033;-89
2022/06/08 07:03:15;;;;;;;17.67;10.35;;;16.10;99.90;;;;;;4991484;28;20149;-87
2022/06/08 07:05:41;;;;;;;18.40;10.15;;;16.40;99.90;;;;;;5007539;28;20033;-87
2022/06/08 07:08:07;;;;;;;16.42;9.65;;;16.50;99.90;;;;;;4965937;28;20533;-89
2022/06/08 07:10:34;;;;;;;15.18;9.43;;;16.60;99.90;;;;;;4995138;28;20460;-90
2022/06/08 07:12:59;;;;;;;15.13;9.57;;;16.60;99.90;;;;;;5012876;28;20049;-89
2022/06/08 07:15:26;;;;;;;15.93;9.73;;;16.60;99.90;;;;;;4994727;28;20516;-89
2022/06/08 07:17:52;;;;;;;15.82;9.13;;;16.70;99.90;;;;;;5009377;28;20045;-87
2022/06/08 07:20:19;;;;;;;14.13;9.35;;;16.70;99.90;;;;;;5009976;28;20069;-90
2022/06/08 07:22:46;;;;;;;15.43;9.25;;;16.80;99.90;;;;;;4990623;28;20045;-89
2022/06/08 07:25:13;;;;;;;15.15;8.73;;;16.80;99.90;;;;;;4979345;28;20056;-88
2022/06/08 07:27:40;;;;;;;14.75;9.07;;;17.10;99.90;;;;;;5011403;28;20438;-90
2022/06/08 07:30:07;;;;;;;14.57;8.80;;;17.10;99.90;;;;;;4993747;28;20120;-89
2022/06/08 07:32:34;;;;;;;12.30;7.47;;;17.20;99.90;;;;;;5010290;28;20053;-90
2022/06/08 07:35:02;;;;;;;13.82;8.45;;;17.20;99.90;;;;;;5006534;28;20052;-88
2022/06/08 07:37:28;;;;;;;12.10;7.65;;;17.40;99.90;;;;;;4985308;28;20133;-88
2022/06/08 07:39:54;;;;;;;11.93;7.57;;;17.40;99.90;;;;;;5008406;28;20041;-90
2022/06/08 07:42:21;;;;;;;13.27;8.00;;;17.60;99.90;;;;;;4988129;28;20307;-89
2022/06/08 07:44:47;;;;;;;13.15;6.75;;;17.80;99.90;;;;;;4992192;28;20042;-89
2022/06/08 07:47:14;;;;;;;11.50;6.70;;;;;;;;;;4984931;28;20041;-87
2022/06/08 07:49:49;;;;;;;12.50;6.80;;;18.00;99.90;;;;;;4998382;28;20175;-88
2022/06/08 07:52:22;;;;;;;13.93;7.00;;;18.00;99.90;;;;;;4997396;28;20045;-90
2022/06/08 07:54:49;;;;;;;12.05;6.85;;;17.90;99.90;;;;;;5011199;28;20136;-89
2022/06/08 07:57:22;;;;;;;13.02;6.35;;;17.90;99.90;;;;;;4999056;28;20073;-89
2022/06/08 07:59:48;;;;;;;12.38;6.13;;;17.90;99.90;;;;;;5027775;28;20033;-90
2022/06/08 08:02:14;;;;;;;11.23;6.20;;;17.80;99.90;;;;;;4987327;28;20029;-88
2022/06/08 08:04:41;;;;;;;12.15;6.65;;;17.80;99.90;;;;;;4994900;28;20048;-89
2022/06/08 08:07:07;;;;;;;9.80;5.28;;;17.80;99.90;;;;;;5018128;28;20075;-89
2022/06/08 08:09:34;;;;;;;10.85;5.53;;;17.80;99.90;;;;;;5008432;28;20040;-90
2022/06/08 08:12:02;;;;;;;11.15;5.50;;;17.90;99.90;;;;;;5004206;28;20037;-89
2022/06/08 08:14:27;;;;;;;10.32;5.43;;;17.90;99.90;;;;;;5003596;28;20163;-89
2022/06/08 08:16:54;;;;;;;9.43;5.20;;;17.90;99.90;;;;;;4995869;28;20049;-89
2022/06/08 08:19:23;;;;;;;9.63;4.90;;;17.90;99.90;;;;;;4990591;28;20053;-89
2022/06/08 08:21:49;;;;;;;10.40;4.85;;;18.20;99.90;;;;;;5019920;28;20521;-91
2022/06/08 08:24:15;;;;;;;9.32;4.78;;;18.30;99.90;;;;;;5005823;28;20039;-90
2022/06/08 08:26:43;;;;;;;9.38;4.32;;;18.50;99.90;;;;;;4976644;28;20041;-91
2022/06/08 08:29:09;;;;;;;9.25;4.28;;;18.70;99.90;;;;;;4992792;28;20097;-90
2022/06/08 08:31:37;;;;;;;10.32;3.90;;;18.80;99.90;;;;;;4995619;28;20053;-91
2022/06/08 08:34:04;;;;;;;8.65;3.95;;;19.00;99.90;;;;;;4996358;28;20044;-89
2022/06/08 08:36:30;;;;;;;8.60;3.95;;;19.00;99.90;;;;;;4992544;28;20049;-91
2022/06/08 08:38:57;;;;;;;10.07;4.10;;;19.00;99.90;;;;;;5002124;28;20045;-90
2022/06/08 08:44:30;;;;;;;9.52;4.00;;;19.20;99.90;;;;;;4995300;28;20046;-90
2022/06/08 08:47:16;;;;;;;8.77;3.60;;;19.10;99.90;;;;;;5012379;28;20402;-89
2022/06/08 08:50:16;;;;;;;9.70;3.42;;;19.00;99.90;;;;;;4989254;28;20045;-90
2022/06/08 08:52:49;;;;;;;8.52;3.15;;;19.10;99.90;;;;;;4988202;28;20042;-89
2022/06/08 08:55:38;;;;;;;8.77;3.50;;;19.10;99.90;;;;;;5010798;28;20099;-90
2022/06/08 08:58:04;;;;;;;8.93;3.40;;;19.20;99.90;;;;;;5011272;28;20072;-90
2022/06/08 09:00:40;;;;;;;9.93;3.40;;;19.40;99.90;;;;;;5008607;28;20037;-91
2022/06/08 09:03:18;;;;;;;8.00;2.88;;;19.60;99.90;;;;;;5004385;28;20054;-89
2022/06/08 09:05:51;;;;;;;7.97;3.42;;;19.60;99.90;;;;;;5009286;28;20038;-91
2022/06/08 09:08:20;;;;;;;7.65;2.88;;;20.10;99.90;;;;;;5015235;28;20049;-89
2022/06/08 09:10:46;;;;;;;7.93;2.80;;;20.40;99.90;;;;;;5026548;28;20045;-89
2022/06/08 09:13:20;;;;;;;6.93;2.50;;;20.40;99.90;;;;;;4319520;28;10000485;-90
2022/06/08 09:15:51;;;;;;;7.50;2.53;;;20.50;99.90;;;;;;5026994;28;20037;-88
2022/06/08 09:18:18;;;;;;;8.15;2.40;;;20.50;99.90;;;;;;4998276;28;20120;-90
2022/06/08 09:35:59;;;;;;;6.68;2.05;;;20.90;99.90;;;;;;5044409;28;20049;-89
2022/06/08 09:38:28;;;;;;;5.78;2.00;;;20.80;99.90;;;;;;5037495;28;20041;-90
2022/06/08 09:41:00;;;;;;;5.40;2.00;;;20.90;99.90;;;;;;5004704;28;20108;-88
2022/06/08 09:43:28;;;;;;;6.53;2.20;;;21.10;99.90;;;;;;5007847;28;20072;-90
2022/06/08 09:45:59;;;;;;;5.68;2.10;;;21.20;99.90;;;;;;5033275;28;20029;-90
2022/06/08 09:52:00;;;;;;;6.57;2.22;;;21.10;99.90;;;;;;5034715;28;20042;-90
2022/06/08 09:54:45;;;;;;;6.35;2.15;;;21.40;99.90;;;;;;5015638;28;20255;-90
2022/06/08 09:57:39;;;;;;;7.75;2.53;;;21.60;99.90;;;;;;5032050;28;20045;-89
2022/06/08 10:00:17;;;;;;;6.28;2.22;;;21.50;99.90;;;;;;5019484;28;20097;-89
2022/06/08 10:03:10;;;;;;;6.50;2.00;;;21.40;99.90;;;;;;5014911;28;20049;-88
2022/06/08 10:05:56;;;;;;;6.55;2.40;;;21.10;99.90;;;;;;5018184;28;20069;-89
2022/06/08 10:08:41;;;;;;;5.22;2.15;;;21.20;99.90;;;;;;5043977;28;20038;-90
2022/06/08 10:11:39;;;;;;;6.43;2.22;;;21.40;99.90;;;;;;5031802;28;20197;-93
2022/06/08 10:14:17;;;;;;;8.63;2.50;;;21.60;99.90;;;;;;5000115;28;20587;-89
2022/06/08 10:16:50;;;;;;;6.68;2.30;;;21.80;99.90;;;;;;5007536;28;20053;-91
2022/06/08 10:19:25;;;;;;;7.15;2.60;;;21.80;99.90;;;;;;5004615;28;20104;-89
2022/06/08 10:21:52;;;;;;;8.73;2.78;;;21.80;99.90;;;;;;5009358;28;20042;-90
2022/06/08 10:25:08;;;;;;;6.60;2.20;;;21.60;99.90;;;;;;4985604;28;20045;-89
2022/06/08 10:27:45;;;;;;;8.25;2.65;;;21.40;99.90;;;;;;4971892;28;20485;-90
2022/06/08 10:30:18;;;;;;;8.50;2.90;;;21.60;99.90;;;;;;4984688;28;20096;-90
2022/06/08 10:32:57;;;;;;;;;;;21.60;99.90;;;;;;4984914;28;20046;-91
2022/06/08 10:35:41;;;;;;;6.50;2.40;;;21.40;99.90;;;;;;5013286;28;19936;-90
2022/06/08 10:38:20;;;;;;;7.03;2.50;;;21.40;99.90;;;;;;4995896;28;20502;-90
2022/06/08 10:44:00;;;;;;;9.35;2.90;;;21.60;99.90;;;;;;4973094;28;20058;-90
2022/06/08 10:46:51;;;;;;;9.05;2.90;;;21.90;99.90;;;;;;5011507;28;20049;-88
2022/06/08 10:49:37;;;;;;;7.55;2.90;;;21.90;99.90;;;;;;4993758;28;20078;-90
2022/06/08 10:52:38;;;;;;;9.00;3.00;;;22.00;99.90;;;;;;5003441;28;20033;-88
2022/06/08 10:55:18;;;;;;;7.80;2.92;;;22.20;99.90;;;;;;4977120;28;20046;-89
2022/06/08 10:58:07;;;;;;;6.75;2.50;;;22.40;99.90;;;;;;4990542;28;20049;-88
2022/06/08 11:00:48;;;;;;;8.00;3.03;;;22.40;99.90;;;;;;5004677;28;20045;-89
2022/06/08 11:03:33;;;;;;;9.60;3.30;;;22.50;99.90;;;;;;4995447;28;20048;-87
2022/06/08 11:05:59;;;;;;;8.60;3.05;;;22.50;99.90;;;;;;4991247;28;20033;-89
2022/06/08 11:08:51;;;;;;;8.23;3.22;;;22.60;99.90;;;;;;4976724;28;20048;-90
2022/06/08 11:11:38;;;;;;;8.25;3.03;;;22.50;99.90;;;;;;4996776;28;20041;-89
2022/06/08 11:14:44;;;;;;;7.82;3.08;;;22.40;99.90;;;;;;5009375;28;20384;-89
2022/06/08 11:17:25;;;;;;;7.18;2.95;;;22.30;99.90;;;;;;4992217;28;20050;-90
2022/06/08 11:19:55;;;;;;;7.80;2.97;;;22.20;99.90;;;;;;4983416;28;20053;-89
2022/06/08 11:22:29;;;;;;;7.30;2.60;;;22.00;99.90;;;;;;4992830;28;20120;-90
2022/06/08 11:25:01;;;;;;;7.63;2.90;;;21.90;99.90;;;;;;5010511;28;20045;-89
2022/06/08 11:27:38;;;;;;;6.47;2.50;;;21.70;99.90;;;;;;5007306;28;20128;-91
2022/06/08 11:30:23;;;;;;;6.10;2.60;;;21.60;99.90;;;;;;4995322;28;20556;-89
2022/06/08 11:32:52;;;;;;;7.78;2.58;;;21.50;99.90;;;;;;5025599;28;20339;-90
2022/06/08 11:35:49;;;;;;;5.95;2.28;;;21.30;99.90;;;;;;5010167;28;20049;-90
2022/06/08 11:38:18;;;;;;;5.80;2.20;;;21.20;99.90;;;;;;4995575;28;20049;-92
2022/06/08 11:40:45;;;;;;;6.28;2.33;;;21.20;99.90;;;;;;5017369;28;20056;-91
2022/06/08 11:43:13;;;;;;;7.30;2.30;;;21.30;99.90;;;;;;4984228;28;20049;-92
2022/06/08 11:45:52;;;;;;;8.52;2.45;;;21.40;99.90;;;;;;4981069;28;20050;-89
2022/06/08 11:48:27;;;;;;;7.15;2.25;;;21.30;99.90;;;;;;4983105;28;20372;-91
2022/06/08 11:51:03;;;;;;;7.68;2.20;;;21.30;99.90;;;;;;4989429;28;20547;-90
2022/06/08 11:53:35;;;;;;;7.22;2.42;;;21.30;99.90;;;;;;5008858;28;20048;-90
2022/06/08 11:56:04;;;;;;;6.70;2.30;;;21.30;99.90;;;;;;5006145;28;20497;-91
2022/06/08 11:58:35;;;;;;;7.88;2.40;;;21.30;99.90;;;;;;5028201;28;20345;-90
2022/06/08 12:01:06;;;;;;;8.20;2.53;;;21.30;99.90;;;;;;4977231;28;20042;-92
2022/06/08 12:03:40;;;;;;;8.13;2.30;;;21.20;99.90;;;;;;4988902;28;20050;-91
2022/06/08 12:06:27;;;;;;;8.57;2.38;;;21.20;99.90;;;;;;5009860;28;20088;-90
2022/06/08 12:09:05;;;;;;;6.53;2.15;;;21.20;99.90;;;;;;4994179;28;20072;-91
2022/06/08 12:11:33;;;;;;;7.82;2.60;;;21.10;99.90;;;;;;4983580;28;20038;-90
2022/06/08 12:14:17;;;;;;;7.22;2.65;;;20.90;99.90;;;;;;4998259;28;20073;-91
2022/06/08 12:17:04;;;;;;;7.68;2.67;;;20.70;99.90;;;;;;5006261;28;20348;-93
2022/06/08 12:19:42;;;;;;;8.27;2.75;;;20.60;99.90;;;;;;4993035;28;20041;-92
2022/06/08 12:22:08;;;;;;;7.60;2.90;;;20.20;99.90;;;;;;5009820;28;20046;-90
2022/06/08 12:24:37;;;;;;;9.07;3.30;;;20.40;99.90;;;;;;4996401;28;20046;-91
2022/06/08 12:27:23;;;;;;;9.23;3.20;;;20.30;99.90;;;;;;5014525;28;20042;-91
2022/06/08 12:29:58;;;;;;;8.50;3.13;;;20.20;99.90;;;;;;5013357;28;20128;-92
2022/06/08 12:32:26;;;;;;;9.65;3.35;;;20.10;99.90;;;;;;4998257;28;20033;-91
2022/06/08 12:35:27;;;;;;;8.60;3.10;;;19.90;99.90;;;;;;4981917;28;20100;-91
2022/06/08 12:38:16;;;;;;;7.82;3.35;;;19.70;99.90;;;;;;5001478;28;20585;-91
2022/06/08 12:40:55;;;;;;;8.02;3.53;;;19.60;99.90;;;;;;5007096;28;20042;-91
2022/06/08 12:43:21;;;;;;;11.68;3.80;;;19.40;99.90;;;;;;5009686;28;20046;-90
2022/06/08 12:46:09;;;;;;;9.48;3.45;;;19.20;99.90;;;;;;4992466;28;20138;-92
2022/06/08 12:48:38;;;;;;;9.32;3.13;;;19.20;99.90;;;;;;5003589;28;20219;-92
2022/06/08 12:51:29;;;;;;;8.00;2.80;;;18.80;99.90;;;;;;4984691;28;20080;-91
2022/06/08 12:54:01;;;;;;;6.65;2.00;;;18.80;99.90;;;;;;4988037;28;20054;-90
2022/06/08 12:56:31;;;;;;;6.82;2.10;;;18.60;99.90;;;;;;4980307;28;20045;-90
2022/06/08 12:58:58;;;;;;;7.75;1.95;;;18.40;99.90;;;;;;4995119;28;20498;-91
2022/06/08 13:01:28;;;;;;;7.63;1.90;;;18.20;99.90;;;;;;4996162;28;20049;-91
2022/06/08 13:03:56;;;;;;;6.40;1.80;;;18.00;99.90;;;;;;4992865;28;20375;-92
2022/06/08 13:06:24;;;;;;;6.93;1.70;;;17.90;99.90;;;;;;5008647;28;20042;-91
2022/06/08 13:08:50;;;;;;;7.07;2.15;;;17.80;99.90;;;;;;5004526;28;20057;-92
2022/06/08 13:11:20;;;;;;;6.68;1.77;;;17.70;99.90;;;;;;4997041;28;20538;-91
2022/06/08 13:13:47;;;;;;;5.80;1.70;;;17.70;99.90;;;;;;4991752;28;20112;-92
2022/06/08 13:16:21;;;;;;;6.25;1.88;;;17.70;99.90;;;;;;4991328;28;20038;-91
2022/06/08 13:18:48;;;;;;;7.28;1.90;;;17.70;99.90;;;;;;4993611;28;20503;-91
2022/06/08 13:21:14;;;;;;;8.10;1.90;;;17.70;99.90;;;;;;4985622;28;20108;-91
2022/06/08 13:23:41;;;;;;;6.60;1.80;;;16.60;99.90;;;;;;4989205;28;20046;-91
2022/06/08 13:26:16;;;;;;;6.03;1.73;;;17.50;99.90;;;;;;5000603;28;20054;-90
2022/06/08 13:28:41;;;;;;;5.03;1.70;;;17.40;99.90;;;;;;4993847;28;20052;-90
2022/06/08 13:31:09;;;;;;;6.03;1.85;;;17.40;99.90;;;;;;4999083;28;20125;-90
2022/06/08 13:33:57;;;;;;;6.15;1.98;;;17.30;99.90;;;;;;4994798;28;20042;-92